Wichita Falls, TX

11:11 PM CDT on August 22, 2014 (GMT -0500)
Lawton-Fort Sill Regional | Change Station
CLOSE
Current Station
Airport
Location: Lawton,
Elevation: 1109 ft
Nearby Weather Stations

Elev 1109 ft 34.56 °N, 98.42 °W | Updated 18 minutes ago

Clear
Clear
88 °F
Feels Like 86 °F
N
13
Wind Variable Wind from SSE

Today
High -- | Low -- °F
--% Chance of Precip.
Yesterday
High -- | Low -- °F
Precip. -- in
7:00 AM 8:12 PM
Waning Crescent, 5% visible
Pressure 29.87 in
Visibility 10.0 miles
Clouds Clear
Heat Index 86 °F
Dew Point 54 °F
Humidity 31%
Rainfall 0.00 in
Snow Depth Not available.
UV 0 out of 12
Pollen 9.40 out of 12
Air Quality Not available.
Flu Activity Not available.
METAR KLAW 230353Z 15011KT 10SM CLR 31/12 A2992 RMK AO2 SLP115 T03110122

More Conditions Fewer Conditions

Pressure 29.87 in
Visibility 10.0 miles
Clouds Clear
Heat Index 86 °F
Dew Point 54 °F
Humidity 31%
Rainfall 0.00 in
Snow Depth Not available.
UV 0 out of 12
Pollen 9.40 out of 12
Air Quality Not available.
Flu Activity Not available.
METAR KLAW 230353Z 15011KT 10SM CLR 31/12 A2992 RMK AO2 SLP115 T03110122

More Conditions Fewer Conditions

10-Day Weather Forecast

Almanac

Astronomy

Aug. 22, 2014 Rise Set
Actual Time 7:00 AM CDT 8:12 PM CDT
Civil Twilight 6:34 AM CDT 8:38 PM CDT
Nautical Twilight 6:03 AM CDT 9:09 PM CDT
Astronomical Twilight 5:31 AM CDT 9:41 PM CDT
Moon 4:28 AM CDT (8/22) 6:19 PM CDT (8/22)
Length of Visible Light 14h 03m
Length of Day
13h 11m
Tomorrow will be 1m 56s shorter.
Waning Crescent, 5% of the Moon is Illuminated
Aug 23
Waning Crescent
Aug 25
New
Sep 2
First Quarter
Sep 8
Full
Sep 15
Last Quarter

Today's Extremes

State Highs State Lows

Community

WunderPhotos

Upload Photos

1,746,358 photos uploaded!

WunderBlogs® & News

Nearby

Snow Depth

Station Depth Elevation
No new snow has been reported.

Earthquake Activity

City Distance Mag. Time & Date
No recent earthquake activity has been reported nearby.
Minimum magnitude displayed is 2.5.

Coastal Water Temperatures

Place Temperature
No Stations Reporting

Nearby Weather Stations